Thunder radar more information blitzortung!


Radar de pluja more information rain snow radar


Visita la nostra xarxa de llocs de meteo:

Template documentation
and downloads

And another site



No particular awareness of the weather is required.    There are no Weather-warnings

Pagina Historial Weather Underground text

Diari Resum Marc 9, 2016 Unitats:  Mètric    Imperial   Tant
« Previous Dia
SegĂźent Dia »
Diari Setmana Mensual Anual Personalitzada
  Maxima: Minima: Media:
Temperatura: -17.8 °C -17 °C -14 °C
Punt de rosada: -17.8 °C -22.3 °C -17.6 °C
Humitat: Humidity % 48 % 64 %
Wind Speed: 0 km/h 0 km/h 4.5 km/h
RĂ fegues de vent: 0 km/h - -
Vent:- - SSW
Pression baro: 0 hPa 34063.2 hPa -
Precipitacions: 25.4 mm    
Historical Graphs
 
 
Dades de taula per Marc 9, 2016
Temps Temperatura Punt de rosada Pression baro Vent Wind Speed RĂ fegues de vent Humitat Rainfall Rate (Hourly)
-17.8 °C -17.8 °C 0 hPa Calm     Humidity % 0 mm
00:05 -16.8 °C -22.3 °C 34395 hPa Calm   5.1 km/h 48 % 0 mm
00:15 -16.9 °C -22.3 °C 34395 hPa West 5.1 km/h 5.1 km/h 48 % 0 mm
00:25 -16.8 °C -22.3 °C 34395 hPa WSW 2.6 km/h 5.1 km/h 48 % 0 mm
00:35 -16.8 °C -22.3 °C 34395 hPa Calm   5.1 km/h 48 % 0 mm
00:45 -16.8 °C -22.3 °C 34395 hPa ENE 2.6 km/h 5.1 km/h 48 % 0 mm
00:55 -16.9 °C -22.2 °C 34395 hPa Calm     49 % 0 mm
01:05 -16.8 °C -22.1 °C 34395 hPa WNW 2.6 km/h 5.1 km/h 49 % 0 mm
01:15 -17 °C -22.2 °C 34361.1 hPa North 2.6 km/h 10.3 km/h 50 % 0 mm
01:25 -16.8 °C -22.2 °C 34361.1 hPa ESE 5.1 km/h 5.1 km/h 49 % 0 mm
01:35 -16.7 °C -21.9 °C 34395 hPa East 2.6 km/h 10.3 km/h 50 % 0 mm
01:45 -16.2 °C -21.3 °C 34395 hPa East 2.6 km/h 5.1 km/h 51 % 0 mm
01:55 -15.9 °C -21 °C 34395 hPa NE 5.1 km/h 5.1 km/h 51 % 0 mm
02:05 -16.1 °C -21.2 °C 34361.1 hPa West 2.6 km/h 5.1 km/h 51 % 0 mm
02:15 -15.8 °C -20.9 °C 34395 hPa WSW 2.6 km/h 5.1 km/h 51 % 0 mm
02:25 -15.6 °C -20.6 °C 34395 hPa WSW 2.6 km/h 5.1 km/h 52 % 0 mm
02:35 -15.2 °C -19.9 °C 34361.1 hPa West 5.1 km/h 7.7 km/h 54 % 0 mm
02:45 -14.9 °C -19.6 °C 34361.1 hPa West 2.6 km/h 7.7 km/h 55 % 0 mm
02:55 -15.2 °C -20.1 °C 34361.1 hPa NE 2.6 km/h 2.6 km/h 53 % 0 mm
03:05 -14.8 °C -19.4 °C 34361.1 hPa WSW 5.1 km/h 10.3 km/h 55 % 0 mm
03:15 -14.6 °C -19.1 °C 34361.1 hPa WSW 2.6 km/h 7.7 km/h 56 % 0 mm
03:25 -14.4 °C -18.9 °C 34361.1 hPa WSW 2.6 km/h 5.1 km/h 56 % 0 mm
03:35 -14.3 °C -18.8 °C 34361.1 hPa SW 5.1 km/h 5.1 km/h 56 % 0 mm
03:45 -14.1 °C -18.7 °C 34327.3 hPa WSW 5.1 km/h 5.1 km/h 56 % 0 mm
03:55 -13.9 °C -18.4 °C 34327.3 hPa WSW 5.1 km/h 10.3 km/h 57 % 0 mm
04:05 -14.2 °C -18.8 °C 34327.3 hPa North 7.7 km/h 10.3 km/h 56 % 0 mm
04:15 -14.3 °C -19 °C 34327.3 hPa NE 5.1 km/h 7.7 km/h 55 % 0 mm
04:25 -14.3 °C -19 °C 34327.3 hPa Calm   7.7 km/h 55 % 0 mm
10:26 -14.3 °C -19 °C 34327.3 hPa NE 9 km/h 9 km/h 55 % 0 mm
10:31 -14.4 °C -19.1 °C 34327.3 hPa NNE 6 km/h 6.3 km/h 55 % 0 mm
10:36 -14.4 °C -19.1 °C 34327.3 hPa ENE 3.7 km/h 3.7 km/h 55 % 0 mm
10:41 -14.4 °C -19.1 °C 34327.3 hPa ENE 7.6 km/h 7.6 km/h 55 % 0 mm
10:46 -14.4 °C -19.1 °C 34327.3 hPa NNE 6.8 km/h 6.8 km/h 55 % 0 mm
10:51 -14.3 °C -19 °C 34327.3 hPa East 6 km/h   55 % 0 mm
10:56 -14.3 °C -19 °C 34327.3 hPa NE 6 km/h   55 % 0 mm
11:01 -14.3 °C -18.9 °C 34327.3 hPa NNE 3.1 km/h 3.1 km/h 55 % 0 mm
11:06 -14.2 °C -18.9 °C 34327.3 hPa NNE 3.1 km/h   55 % 0 mm
11:11 -14.2 °C -18.9 °C 34293.4 hPa NNE 3.1 km/h   55 % 0 mm
11:16 -14.3 °C -18.9 °C 34293.4 hPa ENE 3.7 km/h 3.7 km/h 55 % 0 mm
11:21 -14.2 °C -18.9 °C 34293.4 hPa NNE 6 km/h 6 km/h 55 % 0 mm
11:26 -14.2 °C -18.8 °C 34256.2 hPa NW 3.7 km/h 3.7 km/h 55 % 0 mm
11:31 -13.9 °C -18.4 °C 34256.2 hPa SW 6 km/h 6 km/h 56 % 0 mm
11:36 -13.7 °C -18.2 °C 34256.2 hPa West 6 km/h 6 km/h 56 % 0 mm
11:41 -13.5 °C -18.1 °C 34256.2 hPa West 9 km/h 9 km/h 56 % 0 mm
11:46 -13.4 °C -18 °C 34256.2 hPa WSW 5.1 km/h 5.1 km/h 56 % 0 mm
11:51 -13.4 °C -17.9 °C 34256.2 hPa WSW 6 km/h 6 km/h 56 % 0 mm
11:56 -13.3 °C -17.9 °C 34256.2 hPa WSW 7.6 km/h   56 % 0 mm
12:01 -13.3 °C -17.9 °C 34256.2 hPa WSW 9 km/h 9 km/h 56 % 0 mm
12:06 -13.3 °C -17.9 °C 34256.2 hPa WSW 6 km/h 6 km/h 56 % 0 mm
12:11 -13.3 °C -18 °C 34256.2 hPa WSW 9 km/h 9 km/h 55 % 0 mm
12:16 -13.3 °C -18.1 °C 34256.2 hPa WSW 6 km/h 6 km/h 55 % 0 mm
12:21 -13.3 °C -18 °C 34256.2 hPa WSW 6.3 km/h 6.3 km/h 55 % 0 mm
12:31 -13.2 °C -17.9 °C 34256.2 hPa WSW 6 km/h 6 km/h 55 % 0 mm
12:36 -13.2 °C -17.9 °C 34256.2 hPa SW 11.9 km/h 11.9 km/h 55 % 0 mm
12:41 -13.2 °C -17.9 °C 34256.2 hPa SW 6 km/h 6 km/h 55 % 0 mm
12:46 -13.2 °C -17.9 °C 34256.2 hPa SW 4.2 km/h   55 % 0 mm
12:51 -13.2 °C -17.9 °C 34256.2 hPa WSW 6 km/h 6 km/h 55 % 0 mm
12:56 -13.2 °C -17.9 °C 34222.3 hPa WSW 7.6 km/h 7.6 km/h 55 % 0 mm
13:01 -13.2 °C -17.8 °C 34222.3 hPa WSW 3.1 km/h 3.1 km/h 56 % 0 mm
13:06 -13.3 °C -17.7 °C 34222.3 hPa WSW 5.1 km/h   57 % 0 mm
13:11 -13.4 °C -17.7 °C 34222.3 hPa SW 3.1 km/h 3.1 km/h 58 % 0 mm
13:16 -13.4 °C -17.6 °C 34222.3 hPa West 3.1 km/h   59 % 0 mm
13:21 -13.5 °C -17.4 °C 34222.3 hPa WSW 3.1 km/h   61 % 0 mm
13:26 -13.6 °C -17.4 °C 34198.6 hPa Calm     61 % 0 mm
13:31 -13.7 °C -17.4 °C 34198.6 hPa Calm     62 % 0 mm
13:36 -13.7 °C -17.5 °C 34198.6 hPa WSW 6.3 km/h 6.3 km/h 62 % 0 mm
13:41 -13.8 °C -17.5 °C 34198.6 hPa WSW 6.3 km/h 6.3 km/h 63 % 0 mm
13:46 -13.9 °C -17.4 °C 34198.6 hPa WSW 6.3 km/h 6.3 km/h 64 % 0 mm
13:51 -13.9 °C -17.3 °C 34198.6 hPa WSW 6.3 km/h 6.3 km/h 65 % 0 mm
13:56 -13.9 °C -17.3 °C 34198.6 hPa WSW 3.7 km/h 3.7 km/h 65 % 0 mm
14:01 -14 °C -17.3 °C 34198.6 hPa SW 6 km/h 6 km/h 66 % 0 mm
14:06 -14.1 °C -17.2 °C 34198.6 hPa WSW 3.1 km/h 3.1 km/h 67 % 0 mm
14:11 -13.9 °C -16.9 °C 34198.6 hPa WSW 3.1 km/h   69 % 0 mm
14:16 -13.9 °C -16.8 °C 34198.6 hPa Calm   3.1 km/h 69 % 0 mm
14:21 -13.9 °C -16.9 °C 34198.6 hPa SW 6 km/h 6 km/h 69 % 0 mm
14:26 -13.9 °C -16.9 °C 34164.7 hPa West 3.1 km/h 3.1 km/h 69 % 0 mm
14:31 -13.8 °C -16.7 °C 34164.7 hPa WSW 3.1 km/h   70 % 0 mm
14:36 -13.8 °C -16.6 °C 34164.7 hPa WSW 3.7 km/h   70 % 0 mm
14:41 -13.7 °C -16.6 °C 34130.9 hPa South 6 km/h   70 % 0 mm
14:46 -13.6 °C -16.3 °C 34130.9 hPa Calm     71 % 0 mm
14:51 -13.4 °C -16.3 °C 34130.9 hPa West 6.8 km/h 6.8 km/h 70 % 0 mm
14:56 -13.4 °C -16.2 °C 34130.9 hPa West 6.8 km/h 6.8 km/h 70 % 0 mm
15:01 -13.3 °C -16.1 °C 34130.9 hPa West 3.7 km/h   71 % 0 mm
15:06 -13.3 °C -16.2 °C 34130.9 hPa WSW 9.3 km/h 9.3 km/h 70 % 0 mm
15:11 -13.3 °C -16.2 °C 34130.9 hPa WSW 6 km/h 6 km/h 70 % 0 mm
15:16 -13.2 °C -16.1 °C 34130.9 hPa WSW 6 km/h 6 km/h 70 % 0 mm
15:21 -13.2 °C -16.1 °C 34130.9 hPa WNW 3.7 km/h 5.1 km/h 70 % 0 mm
15:26 -13.2 °C -16 °C 34130.9 hPa WNW 3.7 km/h 5.1 km/h 70 % 0 mm
15:31 -13.2 °C -16 °C 34130.9 hPa SW 6.3 km/h 6.3 km/h 70 % 0 mm
15:36 -13.2 °C -16.2 °C 34130.9 hPa SW 6.3 km/h 6.3 km/h 69 % 0 mm
15:41 -13.2 °C -16.2 °C 34130.9 hPa SW 6.3 km/h 6.3 km/h 69 % 0 mm
15:46 -13.2 °C -16.2 °C 34130.9 hPa SW 6.3 km/h 6.3 km/h 69 % 0 mm
15:51 -13.2 °C -16.2 °C 34130.9 hPa SW 6.3 km/h 6.3 km/h 69 % 0 mm
15:56 -13.2 °C -16.2 °C 34097 hPa SW 6.3 km/h 6.3 km/h 69 % 0 mm
16:01 -13.1 °C -16.1 °C 34097 hPa SW 6.3 km/h 6.3 km/h 69 % 0 mm
16:06 -13 °C -16 °C 34097 hPa SW 6.3 km/h 6.3 km/h 69 % 0 mm
16:11 -12.9 °C -15.9 °C 34097 hPa SW 6.3 km/h 6.3 km/h 69 % 0 mm
16:16 -12.9 °C -16.1 °C 34097 hPa SW 6.3 km/h 6.3 km/h 68 % 0 mm
16:21 -13 °C -16.1 °C 34097 hPa SW 6.3 km/h 6.3 km/h 68 % 0 mm
16:26 -13 °C -16.1 °C 34097 hPa SW 6.3 km/h 6.3 km/h 68 % 0 mm
16:31 -13 °C -16.1 °C 34097 hPa SW 6.3 km/h 6.3 km/h 68 % 0 mm
16:36 -12.9 °C -16.1 °C 34097 hPa SW 6.3 km/h 6.3 km/h 68 % 0 mm
16:41 -12.9 °C -16.1 °C 34097 hPa SW 6.3 km/h 6.3 km/h 68 % 0 mm
16:46 -12.9 °C -16.1 °C 34097 hPa SW 6.3 km/h 6.3 km/h 68 % 0 mm
16:51 -12.9 °C -16.1 °C 34097 hPa SW 6.3 km/h 6.3 km/h 68 % 0 mm
16:56 -12.9 °C -16.1 °C 34097 hPa SW 6.3 km/h 6.3 km/h 68 % 0 mm
17:01 -12.9 °C -16.1 °C 34097 hPa SW 6.3 km/h 6.3 km/h 68 % 0 mm
17:06 -12.9 °C -16.1 °C 34097 hPa SW 6.3 km/h 6.3 km/h 68 % 0 mm
17:11 -12.9 °C -16.1 °C 34097 hPa West 7.6 km/h 7.6 km/h 68 % 0 mm
17:16 -12.9 °C -16 °C 34097 hPa WSW 6 km/h 6 km/h 68 % 0 mm
17:21 -12.8 °C -16.1 °C 34097 hPa WNW 11.9 km/h 11.9 km/h 67 % 0 mm
17:26 -12.8 °C -16.1 °C 34063.2 hPa WSW 6.3 km/h 6.3 km/h 67 % 25.4 mm
17:31 -12.8 °C -16 °C 34063.2 hPa WSW 3.1 km/h 5.1 km/h 67 % 25.4 mm
17:36 -12.8 °C -16.1 °C 34063.2 hPa WSW 3.1 km/h 3.1 km/h 67 % 25.4 mm
17:41 -12.8 °C -16.1 °C 34063.2 hPa WSW 4.2 km/h 4.2 km/h 67 % 25.4 mm
17:46 -12.8 °C -16.1 °C 34063.2 hPa WNW 6 km/h   67 % 25.4 mm
17:51 -12.8 °C -16.1 °C 34063.2 hPa WNW 3.1 km/h   67 % 25.4 mm
17:56 -12.9 °C -16.1 °C 34063.2 hPa SW 9 km/h 9 km/h 67 % 25.4 mm
18:01 -12.9 °C -16.1 °C 34063.2 hPa NNW 6 km/h   67 % 25.4 mm
18:06 -12.8 °C -16.1 °C 34063.2 hPa NW 4.2 km/h 4.2 km/h 67 % 25.4 mm
18:11 -12.7 °C -16.1 °C 34097 hPa NE 3.7 km/h 5.1 km/h 66 % 25.4 mm
18:16 -12.7 °C -15.9 °C 34097 hPa NE 3.7 km/h 5.1 km/h 67 % 25.4 mm
18:21 -12.7 °C -15.9 °C 34097 hPa NE 3.7 km/h 5.1 km/h 67 % 25.4 mm
18:26 -12.8 °C -16.2 °C 34063.2 hPa NE 3.7 km/h 5.1 km/h 66 % 0 mm
18:31 -12.9 °C -16.2 °C 34063.2 hPa NE 6 km/h 6 km/h 66 % 0 mm
18:36 -12.9 °C -16.2 °C 34063.2 hPa NE 4.2 km/h 5.6 km/h 67 % 0 mm
18:41 -12.9 °C -16.2 °C 34063.2 hPa NE 4.2 km/h 5.6 km/h 67 % 0 mm
18:46 -12.9 °C -16.2 °C 34063.2 hPa ENE 6 km/h 6 km/h 67 % 0 mm
18:51 -13 °C -16.2 °C 34063.2 hPa NE 6 km/h 6 km/h 67 % 0 mm
18:56 -13.1 °C -16.3 °C 34063.2 hPa NE 6 km/h 6 km/h 67 % 0 mm
19:01 -13.1 °C -16.3 °C 34063.2 hPa Calm     67 % 0 mm
19:06 -13.2 °C -16.4 °C 34063.2 hPa Calm     67 % 0 mm
19:11 -13.2 °C -16.4 °C 34063.2 hPa Calm     67 % 0 mm
19:16 -13.3 °C -16.5 °C 34063.2 hPa Calm     67 % 0 mm
19:21 -13.3 °C -16.4 °C 34063.2 hPa Calm     68 % 0 mm
19:26 -13.3 °C -16.6 °C 34097 hPa Calm     67 % 0 mm
19:31 -13.4 °C -16.5 °C 34097 hPa ENE 2.3 km/h 3.1 km/h 68 % 0 mm
19:36 -13.4 °C -16.5 °C 34097 hPa NW 2.3 km/h   68 % 0 mm
19:41 -13.5 °C -16.6 °C 34097 hPa Calm     68 % 0 mm
19:46 -13.6 °C -16.6 °C 34097 hPa ENE 4.2 km/h 4.2 km/h 68 % 0 mm
19:51 -13.6 °C -16.7 °C 34097 hPa ENE 3.7 km/h 3.7 km/h 68 % 0 mm
19:56 -13.6 °C -16.7 °C 34097 hPa NE 6 km/h 6 km/h 68 % 0 mm
20:01 -13.7 °C -16.6 °C 34097 hPa ENE 3.1 km/h 3.7 km/h 69 % 0 mm
20:06 -13.7 °C -16.6 °C 34097 hPa ENE 3.1 km/h 3.1 km/h 69 % 0 mm
20:11 -13.8 °C -16.7 °C 34097 hPa NE 5.1 km/h 5.1 km/h 69 % 0 mm
20:16 -13.8 °C -16.7 °C 34097 hPa ENE 9 km/h 9 km/h 69 % 0 mm
20:21 -13.8 °C -16.8 °C 34097 hPa East 6 km/h 6 km/h 69 % 0 mm
20:26 -13.9 °C -16.8 °C 34097 hPa ENE 6 km/h 6 km/h 69 % 0 mm
20:31 -13.9 °C -16.9 °C 34097 hPa ENE 6 km/h 6 km/h 69 % 0 mm
20:41 -14 °C -16.9 °C 34097 hPa NE 9 km/h 9 km/h 69 % 0 mm
20:46 -14.1 °C -17 °C 34097 hPa NE 8 km/h 8 km/h 69 % 0 mm
20:51 -14.1 °C -17 °C 34097 hPa NNE 4.2 km/h 4.2 km/h 69 % 0 mm
20:56 -14.1 °C -17.1 °C 34130.9 hPa NE 6 km/h 6 km/h 69 % 0 mm
21:01 -14.2 °C -17.1 °C 34130.9 hPa NE 6.3 km/h 6.3 km/h 69 % 0 mm
21:06 -14.2 °C -17 °C 34130.9 hPa NE 6 km/h 6 km/h 70 % 0 mm
21:11 -14.2 °C -17.1 °C 34097 hPa NE 6 km/h 6 km/h 69 % 0 mm
21:16 -14.2 °C -17.2 °C 34097 hPa Calm     69 % 0 mm
21:21 -14.3 °C -17.1 °C 34097 hPa Calm     70 % 0 mm
21:26 -14.3 °C -17.3 °C 34097 hPa WSW 3.7 km/h   69 % 0 mm
21:31 -14.4 °C -17.2 °C 34097 hPa Calm     70 % 0 mm
21:36 -14.4 °C -17.3 °C 34097 hPa Calm     70 % 0 mm
21:41 -14.4 °C -17.3 °C 34097 hPa Calm     70 % 0 mm
21:46 -14.6 °C -17.4 °C 34097 hPa Calm     70 % 0 mm
21:56 -14.6 °C -17.3 °C 34097 hPa Calm     71 % 0 mm
22:01 -14.6 °C -17.3 °C 34097 hPa Calm     71 % 0 mm
22:06 -14.7 °C -17.6 °C 34097 hPa WSW 6 km/h 6.3 km/h 69 % 0 mm
22:11 -14.8 °C -17.6 °C 34097 hPa WNW 3.1 km/h   70 % 0 mm
22:16 -14.8 °C -17.6 °C 34097 hPa Calm     71 % 0 mm
22:21 -14.8 °C -17.6 °C 34097 hPa WSW 6 km/h 6 km/h 70 % 0 mm
22:26 -14.8 °C -17.6 °C 34097 hPa SW 3.1 km/h 3.1 km/h 71 % 0 mm
22:31 -14.8 °C -17.6 °C 34097 hPa NW 3.1 km/h 3.1 km/h 71 % 0 mm
22:36 -14.9 °C -17.4 °C 34097 hPa WNW 3.1 km/h   72 % 0 mm
22:41 -14.9 °C -17.6 °C 34097 hPa WSW 6 km/h 6.3 km/h 71 % 0 mm
22:46 -15 °C -17.6 °C 34097 hPa WSW 3.1 km/h 3.1 km/h 72 % 0 mm
22:51 -15 °C -17.6 °C 34097 hPa WSW 4.2 km/h   72 % 0 mm
22:56 -15 °C -17.6 °C 34097 hPa WSW 5.1 km/h 5.1 km/h 72 % 0 mm
23:01 -15 °C -17.6 °C 34097 hPa West 6 km/h 6 km/h 72 % 0 mm
23:06 -15 °C -17.6 °C 34097 hPa SW 9.3 km/h 9.3 km/h 72 % 0 mm
23:11 -14.9 °C -17.3 °C 34097 hPa West 9 km/h 9 km/h 74 % 0 mm
23:16 -14.9 °C -17.3 °C 34097 hPa WSW 3.7 km/h 3.7 km/h 74 % 0 mm
23:21 -14.9 °C -17.3 °C 34097 hPa NNW 3.1 km/h 3.1 km/h 74 % 0 mm
23:26 -14.9 °C -17.3 °C 34097 hPa WNW 8.5 km/h 8.5 km/h 74 % 0 mm
23:31 -14.9 °C -17.3 °C 34097 hPa SE 3.1 km/h   74 % 0 mm
23:36 -14.9 °C -17.3 °C 34097 hPa NNE 3.7 km/h 3.7 km/h 74 % 0 mm
23:41 -15.1 °C -17.4 °C 34097 hPa Calm     74 % 0 mm
23:46 -15.2 °C -17.6 °C 34097 hPa WSW 4.2 km/h 4.2 km/h 74 % 0 mm
Meteo Sesrovires
Elogis d' Weather Underground - 3.5 mb

Guio original per  Jim McMurry - jmcmurry@mwt.net Adaptat per a la plantilla per  Wim van der Kuil - Leuven-Template.eu

Trobareu la nostra informacio del temps tambe a:

Weather Underground

AWEKAS